Time;durP1;ratioP1;P1;durP2;ratioP2;P2;SDS_P1;SDS_P2;PMS_P1;PMS_P2;Temp;Humidity;BMP_temperature;BMP_pressure;BME280_temperature;BME280_humidity;BME280_pressure;Samples;Min_cycle;Max_cycle;Signal;HPM_P1;HPM_P2
2023/10/13 00:02:04;;;;;;;0.88;0.88;;;18.40;99.90;;;;;;5086547;28;20463;-84
2023/10/13 00:04:37;;;;;;;0.93;0.93;;;18.40;99.90;;;;;;5087639;28;20065;-84
2023/10/13 00:07:04;;;;;;;;;;;18.40;99.90;;;;;;5070807;28;20032;-85
2023/10/13 00:09:35;;;;;;;0.90;0.90;;;18.40;99.90;;;;;;5089453;28;19960;-84
2023/10/13 00:12:04;;;;;;;0.73;0.73;;;18.40;99.90;;;;;;5069411;28;20025;-82
2023/10/13 00:14:33;;;;;;;0.95;0.95;;;18.50;99.90;;;;;;5055567;28;20027;-81
2023/10/13 00:17:04;;;;;;;3.10;1.50;;;18.40;99.90;;;;;;5067206;28;20039;-82
2023/10/13 00:19:46;;;;;;;1.58;1.48;;;18.40;99.90;;;;;;5079447;28;20063;-81
2023/10/13 00:22:15;;;;;;;0.97;0.97;;;18.50;99.90;;;;;;5068957;28;20115;-81
2023/10/13 00:24:42;;;;;;;4.38;0.90;;;18.50;99.90;;;;;;5078950;28;20123;-82
2023/10/13 00:27:24;;;;;;;1.33;0.90;;;18.50;99.90;;;;;;5069729;28;20102;-82
2023/10/13 00:29:51;;;;;;;0.95;0.82;;;18.50;99.90;;;;;;5088443;28;20077;-82
2023/10/13 00:32:20;;;;;;;1.38;0.93;;;18.50;99.90;;;;;;5088370;28;20086;-81
2023/10/13 00:34:45;;;;;;;1.45;1.45;;;18.50;99.90;;;;;;5070016;28;20029;-81
2023/10/13 00:39:45;;;;;;;0.80;0.80;;;18.50;99.90;;;;;;5088490;28;20036;-82
2023/10/13 00:42:19;;;;;;;0.95;0.95;;;18.60;99.90;;;;;;5091532;28;20055;-81
2023/10/13 00:44:49;;;;;;;0.98;0.98;;;18.60;99.90;;;;;;5087460;28;20115;-82
2023/10/13 00:50:04;;;;;;;0.70;0.70;;;18.50;99.90;;;;;;5087954;28;20721;-82
2023/10/13 00:52:32;;;;;;;1.40;1.38;;;18.50;99.90;;;;;;5067802;28;20023;-83
2023/10/13 00:54:59;;;;;;;1.05;1.02;;;18.50;99.90;;;;;;5090940;28;20379;-84
2023/10/13 00:57:32;;;;;;;1.40;1.30;;;18.50;99.90;;;;;;5079266;28;20068;-84
2023/10/13 01:00:18;;;;;;;2.55;2.08;;;18.50;99.90;;;;;;5069245;28;20057;-83
2023/10/13 01:02:45;;;;;;;1.05;1.05;;;18.50;99.90;;;;;;5091131;28;20092;-84
2023/10/13 01:05:19;;;;;;;1.98;1.10;;;18.50;99.90;;;;;;5081227;28;20030;-83
2023/10/13 01:07:50;;;;;;;1.17;0.88;;;18.50;99.90;;;;;;5110279;28;20539;-82
2023/10/13 01:10:16;;;;;;;0.70;0.68;;;18.60;99.90;;;;;;5091671;28;20035;-83
2023/10/13 01:12:43;;;;;;;1.13;1.08;;;18.50;99.90;;;;;;5090497;28;20103;-81
2023/10/13 01:15:11;;;;;;;0.80;0.80;;;18.60;99.90;;;;;;5085100;28;20654;-81
2023/10/13 01:17:36;;;;;;;1.30;1.30;;;18.60;99.90;;;;;;5085865;28;20428;-81
2023/10/13 01:20:04;;;;;;;1.77;0.65;;;18.60;99.90;;;;;;5066191;28;20047;-83
2023/10/13 01:22:31;;;;;;;1.48;1.20;;;18.50;99.90;;;;;;5082092;28;20039;-81
2023/10/13 01:25:13;;;;;;;1.55;1.45;;;18.50;99.90;;;;;;5088251;28;20656;-83
2023/10/13 01:27:39;;;;;;;0.73;0.70;;;18.50;99.90;;;;;;5067519;28;20024;-84
2023/10/13 01:30:10;;;;;;;2.05;1.13;;;18.60;99.90;;;;;;5071491;28;20119;-83
2023/10/13 01:32:40;;;;;;;1.70;1.23;;;18.60;99.90;;;;;;5070824;28;20028;-84
2023/10/13 01:35:07;;;;;;;0.98;0.90;;;18.70;99.90;;;;;;5068409;28;20551;-83
2023/10/13 01:37:35;;;;;;;1.13;1.13;;;18.60;99.90;;;;;;5070395;28;20055;-84
2023/10/13 01:40:00;;;;;;;1.25;1.20;;;18.60;99.90;;;;;;5089380;28;20023;-84
2023/10/13 01:42:30;;;;;;;0.93;0.93;;;18.60;99.90;;;;;;5086818;28;20490;-84
2023/10/13 01:45:05;;;;;;;0.70;0.70;;;18.50;99.90;;;;;;5086660;28;20028;-81
2023/10/13 01:47:33;;;;;;;1.17;1.17;;;18.60;99.90;;;;;;5197745;22;20019;-85
2023/10/13 01:50:20;;;;;;;1.13;1.00;;;18.50;99.90;;;;;;5036147;28;20297;-80
2023/10/13 01:52:46;;;;;;;0.80;0.80;;;18.60;99.90;;;;;;5042951;28;20064;-80
2023/10/13 01:55:14;;;;;;;1.10;1.10;;;18.50;99.90;;;;;;5052163;28;20067;-80
2023/10/13 01:57:46;;;;;;;1.40;1.30;;;18.50;99.90;;;;;;5072826;28;20397;-83
2023/10/13 02:00:18;;;;;;;0.95;0.95;;;18.60;99.90;;;;;;5047210;28;20032;-83
2023/10/13 02:02:49;;;;;;;0.90;0.90;;;18.50;99.90;;;;;;5041878;28;20048;-84
2023/10/13 02:05:17;;;;;;;3.53;1.00;;;18.60;99.90;;;;;;5041711;28;20501;-83
2023/10/13 02:07:45;;;;;;;1.00;0.93;;;18.60;99.90;;;;;;5060204;28;20450;-80
2023/10/13 02:10:12;;;;;;;1.05;1.05;;;18.50;99.90;;;;;;5055573;28;20025;-81
2023/10/13 02:12:47;;;;;;;1.20;1.10;;;18.50;99.90;;;;;;5042318;28;20452;-81
2023/10/13 02:15:26;;;;;;;2.58;0.95;;;18.50;99.90;;;;;;5040349;28;20028;-80
2023/10/13 02:17:54;;;;;;;0.95;0.88;;;18.50;99.90;;;;;;5060031;28;20591;-79
2023/10/13 02:20:24;;;;;;;0.73;0.73;;;18.50;99.90;;;;;;5057686;28;20044;-80
2023/10/13 02:22:49;;;;;;;2.38;0.88;;;18.50;99.90;;;;;;5060271;28;20017;-80
2023/10/13 02:25:35;;;;;;;1.33;1.33;;;18.50;99.90;;;;;;5059195;28;20035;-81
2023/10/13 02:28:13;;;;;;;0.63;0.63;;;18.50;99.90;;;;;;5047965;28;20476;-79
2023/10/13 02:30:48;;;;;;;0.88;0.88;;;18.50;99.90;;;;;;5057188;28;20037;-80
2023/10/13 02:33:16;;;;;;;0.65;0.65;;;18.50;99.90;;;;;;5058032;28;20029;-80
2023/10/13 02:35:43;;;;;;;0.40;0.40;;;18.40;99.90;;;;;;5057139;28;20016;-80
2023/10/13 02:38:12;;;;;;;0.60;0.60;;;18.50;99.90;;;;;;5040966;28;20085;-86
2023/10/13 02:40:38;;;;;;;1.15;1.15;;;18.50;99.90;;;;;;5036320;28;20071;-83
2023/10/13 02:43:05;;;;;;;0.80;0.80;;;18.50;99.90;;;;;;5034825;28;20583;-83
2023/10/13 02:45:32;;;;;;;0.65;0.65;;;18.50;99.90;;;;;;5041233;28;20403;-82
2023/10/13 02:48:17;;;;;;;2.50;1.45;;;18.50;99.90;;;;;;5058364;28;20024;-81
2023/10/13 02:50:57;;;;;;;0.47;0.47;;;18.60;99.90;;;;;;5040394;28;20036;-81
2023/10/13 02:53:22;;;;;;;0.80;0.80;;;18.40;99.90;;;;;;5037512;28;20020;-81
2023/10/13 02:55:52;;;;;;;1.50;1.45;;;18.30;99.90;;;;;;5063289;28;20163;-80
2023/10/13 02:58:18;;;;;;;0.75;0.75;;;18.50;99.90;;;;;;5041328;28;20022;-81
2023/10/13 03:00:46;;;;;;;0.85;0.85;;;18.50;99.90;;;;;;5056966;28;20036;-81
2023/10/13 03:03:14;;;;;;;1.05;1.05;;;18.50;99.90;;;;;;5056231;28;20024;-80
2023/10/13 03:05:42;;;;;;;1.48;1.40;;;18.40;99.90;;;;;;5042544;28;20040;-81
2023/10/13 03:08:09;;;;;;;1.33;0.85;;;18.40;99.90;;;;;;5059539;28;20032;-81
2023/10/13 03:10:39;;;;;;;1.58;1.02;;;18.50;99.90;;;;;;5051540;28;20440;-83
2023/10/13 03:13:09;;;;;;;0.90;0.90;;;18.50;99.90;;;;;;5057005;28;21156;-81
2023/10/13 03:15:35;;;;;;;2.35;1.15;;;18.60;99.90;;;;;;5043079;28;20036;-81
2023/10/13 03:18:02;;;;;;;1.00;0.95;;;18.60;99.90;;;;;;5046930;28;20082;-83
2023/10/13 03:20:41;;;;;;;1.45;1.45;;;18.60;99.90;;;;;;5074784;28;20020;-84
2023/10/13 03:23:09;;;;;;;1.20;1.00;;;18.40;99.90;;;;;;5049070;28;20027;-83
2023/10/13 03:25:42;;;;;;;1.83;1.73;;;18.40;99.90;;;;;;5045733;28;20039;-83
2023/10/13 03:28:11;;;;;;;2.53;1.13;;;18.40;99.90;;;;;;5064837;28;20024;-83
2023/10/13 03:30:41;;;;;;;4.05;1.50;;;18.40;99.90;;;;;;5062844;28;20165;-83
2023/10/13 03:33:09;;;;;;;0.80;0.80;;;18.50;99.90;;;;;;5046852;28;20031;-83
2023/10/13 03:35:41;;;;;;;1.35;1.25;;;18.40;99.90;;;;;;5044746;28;20610;-82
2023/10/13 03:38:16;;;;;;;0.80;0.80;;;18.40;99.90;;;;;;5065537;28;20031;-83
2023/10/13 03:40:48;;;;;;;2.85;1.50;;;18.40;99.90;;;;;;5221825;22;20131;-84
2023/10/13 03:43:16;;;;;;;0.73;0.73;;;18.30;99.90;;;;;;5039908;28;20035;-82
2023/10/13 03:45:52;;;;;;;1.20;0.70;;;18.30;99.90;;;;;;5059729;28;20546;-81
2023/10/13 03:51:02;;;;;;;1.38;1.38;;;18.20;99.90;;;;;;5057595;28;20527;-81
2023/10/13 03:53:33;;;;;;;1.02;1.02;;;18.30;99.90;;;;;;5056811;28;20475;-81
2023/10/13 03:56:08;;;;;;;1.25;1.23;;;18.40;99.90;;;;;;5054386;28;20099;-81
2023/10/13 03:58:42;;;;;;;0.98;0.88;;;18.40;99.90;;;;;;5038330;28;20434;-82
2023/10/13 04:01:14;;;;;;;1.52;1.52;;;18.50;99.90;;;;;;5035538;28;20119;-81
2023/10/13 04:03:56;;;;;;;1.63;1.58;;;18.40;99.90;;;;;;5044693;28;20029;-81
2023/10/13 04:17:33;;;;;;;0.95;0.88;;;18.40;99.90;;;;;;5057747;28;20082;-81
2023/10/13 04:25:35;;;;;;;0.60;0.60;;;18.40;99.90;;;;;;5055051;28;20033;-80
2023/10/13 04:33:35;;;;;;;0.60;0.60;;;18.40;99.90;;;;;;5056328;28;20080;-81
2023/10/13 04:36:16;;;;;;;1.60;1.50;;;18.50;99.90;;;;;;5045441;28;20424;-82
2023/10/13 04:38:56;;;;;;;1.25;1.25;;;18.50;99.90;;;;;;5054730;28;20031;-83
2023/10/13 04:41:31;;;;;;;1.00;1.00;;;18.50;99.90;;;;;;5053906;28;20582;-84
2023/10/13 04:44:04;;;;;;;0.90;0.90;;;18.50;99.90;;;;;;5044853;28;20063;-84
2023/10/13 04:52:04;;;;;;;0.70;0.70;;;18.50;99.90;;;;;;5053509;28;20059;-83
2023/10/13 04:54:33;;;;;;;1.08;1.08;;;18.50;99.90;;;;;;5044384;28;20063;-84
2023/10/13 06:29:53;;;;;;;0.80;0.80;;;18.60;99.90;;;;;;5054843;28;20530;-87
2023/10/13 06:32:19;;;;;;;0.70;0.70;;;18.60;99.90;;;;;;5039271;28;20025;-85
2023/10/13 06:34:45;;;;;;;1.42;1.42;;;18.60;99.90;;;;;;5054917;28;20523;-84
2023/10/13 06:37:30;;;;;;;1.00;1.00;;;18.70;99.90;;;;;;5044301;28;20021;-85
2023/10/13 06:40:12;;;;;;;0.90;0.90;;;18.80;99.90;;;;;;5049742;28;20050;-86
2023/10/13 06:42:42;;;;;;;1.13;1.13;;;18.80;99.90;;;;;;5033600;28;20447;-85
2023/10/13 06:45:09;;;;;;;1.67;1.38;;;18.90;99.90;;;;;;5029934;28;20025;-82
2023/10/13 06:47:44;;;;;;;1.38;1.38;;;18.80;99.90;;;;;;5035333;28;20392;-80
2023/10/13 06:50:19;;;;;;;1.00;1.00;;;18.80;99.90;;;;;;5055915;28;20174;-82
2023/10/13 06:52:48;;;;;;;1.60;1.50;;;18.90;99.90;;;;;;5041723;28;20032;-82
2023/10/13 06:55:17;;;;;;;0.95;0.88;;;18.80;99.90;;;;;;5043545;28;20017;-81
2023/10/13 06:57:44;;;;;;;0.70;0.70;;;18.80;99.90;;;;;;5042943;28;20465;-81
2023/10/13 07:00:19;;;;;;;0.90;0.90;;;18.90;99.90;;;;;;5041982;28;20036;-82
2023/10/13 07:02:46;;;;;;;1.00;0.98;;;18.80;99.90;;;;;;5039316;28;20037;-82
2023/10/13 07:05:13;;;;;;;0.85;0.82;;;19.00;99.90;;;;;;5026117;28;20078;-84
2023/10/13 07:07:40;;;;;;;0.73;0.73;;;19.00;99.90;;;;;;5039433;28;20127;-82
2023/10/13 07:10:11;;;;;;;1.05;1.05;;;19.00;99.90;;;;;;5056084;28;20024;-83
2023/10/13 07:12:38;;;;;;;1.85;1.15;;;19.00;99.90;;;;;;5061617;28;20027;-82
2023/10/13 07:15:19;;;;;;;0.98;0.98;;;19.10;99.90;;;;;;5057348;28;20301;-83
2023/10/13 07:17:47;;;;;;;0.90;0.90;;;19.10;99.90;;;;;;5037595;28;20032;-80
2023/10/13 07:20:23;;;;;;;1.00;1.00;;;19.20;99.90;;;;;;5059473;28;20553;-81
2023/10/13 07:23:02;;;;;;;0.98;0.98;;;19.10;99.90;;;;;;5040360;28;20028;-79
2023/10/13 07:25:32;;;;;;;0.90;0.90;;;19.10;99.90;;;;;;5056948;28;20025;-80
2023/10/13 07:28:01;;;;;;;1.15;1.08;;;19.20;99.90;;;;;;5061697;28;20025;-79
2023/10/13 07:30:27;;;;;;;0.82;0.82;;;19.30;99.90;;;;;;5045456;28;20029;-79
2023/10/13 07:32:54;;;;;;;1.05;1.05;;;19.30;99.90;;;;;;5057057;28;20028;-81
2023/10/13 07:35:24;;;;;;;0.70;0.70;;;19.40;99.90;;;;;;5040792;28;20020;-81
2023/10/13 07:37:53;;;;;;;0.88;0.88;;;19.30;99.90;;;;;;5059034;28;20498;-82
2023/10/13 07:40:39;;;;;;;0.82;0.82;;;19.30;99.90;;;;;;5046723;28;20468;-80
2023/10/13 07:43:09;;;;;;;1.10;1.10;;;19.40;99.90;;;;;;5038985;28;20035;-83
2023/10/13 07:45:40;;;;;;;2.13;2.03;;;19.50;99.90;;;;;;5044870;28;20399;-82
2023/10/13 07:48:25;;;;;;;2.00;1.92;;;19.50;99.90;;;;;;5056404;28;20072;-80
2023/10/13 07:51:11;;;;;;;0.82;0.80;;;19.60;99.90;;;;;;5041103;28;20898;-81
2023/10/13 07:53:40;;;;;;;1.17;1.17;;;19.50;99.90;;;;;;5051797;28;20032;-90
2023/10/13 07:56:12;;;;;;;0.77;0.77;;;19.50;99.90;;;;;;5061058;28;20118;-95
2023/10/13 07:58:47;;;;;;;0.90;0.90;;;19.40;99.90;;;;;;5046615;28;20408;-93
2023/10/13 08:01:17;;;;;;;0.93;0.93;;;19.50;99.90;;;;;;5049190;28;20037;-91
2023/10/13 08:03:46;;;;;;;1.65;1.55;;;19.50;99.90;;;;;;5042051;28;20036;-94
2023/10/13 08:08:43;;;;;;;1.02;1.02;;;19.70;99.90;;;;;;5059059;28;20126;-91
2023/10/13 08:13:55;;;;;;;1.52;1.52;;;19.60;99.90;;;;;;5064230;28;20087;-96
2023/10/13 08:16:22;;;;;;;2.33;1.90;;;19.70;99.90;;;;;;5052173;28;20025;-95
2023/10/13 08:18:52;;;;;;;0.90;0.90;;;19.80;99.90;;;;;;5055882;28;20029;-90
2023/10/13 08:21:22;;;;;;;2.22;1.35;;;19.80;99.90;;;;;;5061708;28;20040;-94
2023/10/13 08:26:56;;;;;;;1.63;1.02;;;19.90;99.90;;;;;;5075580;28;20738;-89
2023/10/13 08:48:18;;;;;;;1.20;1.20;;;20.20;99.90;;;;;;5061178;28;20049;-90
2023/10/13 08:53:52;;;;;;;2.95;0.60;;;20.40;99.90;;;;;;5060407;28;20032;-88
2023/10/13 09:04:22;;;;;;;4.95;1.10;;;20.70;99.90;;;;;;5057343;28;20025;-79
2023/10/13 09:09:35;;;;;;;0.85;0.85;;;20.90;99.90;;;;;;5058607;28;20570;-77
2023/10/13 09:12:12;;;;;;;1.25;1.25;;;21.10;99.90;;;;;;5043724;28;20029;-77
2023/10/13 09:14:43;;;;;;;4.32;1.08;;;21.20;99.90;;;;;;5041965;28;20032;-82
2023/10/13 09:17:11;;;;;;;0.73;0.73;;;21.50;99.90;;;;;;5041224;28;20115;-80
2023/10/13 09:23:24;;;;;;;10.02;1.08;;;21.80;99.90;;;;;;5035501;28;20041;-79
2023/10/13 09:26:08;;;;;;;0.85;0.85;;;21.90;99.90;;;;;;5058032;28;20074;-80
2023/10/13 09:28:36;;;;;;;0.88;0.85;;;21.90;99.90;;;;;;5043647;28;20025;-80
2023/10/13 09:31:02;;;;;;;3.08;1.35;;;21.80;99.90;;;;;;5045011;28;20032;-80
2023/10/13 09:33:45;;;;;;;10.45;5.68;;;21.90;99.90;;;;;;5038941;28;20020;-78
2023/10/13 09:36:12;;;;;;;1.85;1.75;;;21.90;99.90;;;;;;5057057;28;20483;-79
2023/10/13 09:38:41;;;;;;;1.05;1.05;;;22.00;99.90;;;;;;5056722;28;20020;-80
2023/10/13 09:41:26;;;;;;;0.80;0.80;;;22.10;99.90;;;;;;5036564;28;20048;-80
2023/10/13 09:43:57;;;;;;;1.02;1.02;;;22.10;99.90;;;;;;5057809;28;20080;-84
2023/10/13 09:46:28;;;;;;;0.80;0.80;;;22.20;99.90;;;;;;5044379;28;20016;-86
2023/10/13 09:49:33;;;;;;;1.10;1.10;;;22.20;99.90;;;;;;5047294;28;20021;-84
2023/10/13 09:52:01;;;;;;;0.43;0.43;;;22.40;99.90;;;;;;5039006;28;20024;-86
2023/10/13 09:54:36;;;;;;;1.25;1.25;;;22.40;99.90;;;;;;5056168;28;20040;-85
2023/10/13 09:57:18;;;;;;;1.10;1.00;;;22.50;99.90;;;;;;5060430;28;20021;-84
2023/10/13 09:59:54;;;;;;;0.55;0.55;;;22.50;99.90;;;;;;5050875;28;20044;-84
2023/10/13 10:02:25;;;;;;;1.17;1.08;;;22.40;99.90;;;;;;5055549;28;20097;-87
2023/10/13 10:05:12;;;;;;;0.70;0.70;;;22.60;99.90;;;;;;5059749;28;20378;-87
2023/10/13 10:07:39;;;;;;;1.35;1.25;;;22.50;99.90;;;;;;5049305;28;20020;-87
2023/10/13 10:10:08;;;;;;;1.25;1.15;;;22.50;99.90;;;;;;5047039;28;20031;-85
2023/10/13 10:13:05;;;;;;;1.15;0.77;;;22.50;99.90;;;;;;5049587;28;20024;-89
2023/10/13 10:15:35;;;;;;;0.60;0.60;;;22.50;99.90;;;;;;5047592;28;20303;-87
2023/10/13 10:18:22;;;;;;;0.93;0.93;;;22.60;99.90;;;;;;5041315;28;20504;-81
2023/10/13 10:20:51;;;;;;;1.65;1.55;;;22.60;99.90;;;;;;5035966;28;20064;-79
2023/10/13 10:23:40;;;;;;;0.90;0.90;;;22.70;99.90;;;;;;5048093;28;20029;-79
2023/10/13 10:26:25;;;;;;;1.00;0.90;;;22.80;99.90;;;;;;5062741;28;20040;-89
2023/10/13 10:28:51;;;;;;;0.88;0.88;;;22.80;99.90;;;;;;5050000;28;20025;-89
2023/10/13 10:31:21;;;;;;;0.90;0.90;;;22.90;99.90;;;;;;5054280;28;20031;-87
2023/10/13 10:33:50;;;;;;;0.70;0.70;;;22.90;99.90;;;;;;5064900;28;20817;-91
2023/10/13 10:36:27;;;;;;;0.82;0.82;;;23.00;99.90;;;;;;5075225;28;20035;-90
2023/10/13 10:38:58;;;;;;;1.73;1.63;;;22.80;99.90;;;;;;5062759;28;20067;-90
2023/10/13 10:41:44;;;;;;;0.80;0.80;;;22.90;99.90;;;;;;5041442;28;20033;-87
2023/10/13 10:44:23;;;;;;;0.68;0.68;;;22.90;99.90;;;;;;5049317;28;20093;-85
2023/10/13 10:46:56;;;;;;;1.73;1.63;;;23.00;99.90;;;;;;5063991;28;20046;-87
2023/10/13 10:49:29;;;;;;;1.30;1.30;;;23.10;99.90;;;;;;5047044;28;20021;-89
2023/10/13 10:52:04;;;;;;;1.50;1.50;;;23.10;99.90;;;;;;5063572;28;20090;-86
2023/10/13 10:54:33;;;;;;;1.95;1.13;;;23.30;99.90;;;;;;5051512;28;20035;-87
2023/10/13 10:57:17;;;;;;;0.90;0.90;;;23.30;99.90;;;;;;5063048;28;20017;-85
2023/10/13 10:59:44;;;;;;;1.27;1.10;;;23.50;99.90;;;;;;5048167;28;20074;-91
2023/10/13 11:05:01;;;;;;;;;;;;;;;;;;;;;
2023/10/13 11:07:34;;;;;;;1.08;1.08;;;23.20;99.90;;;;;;5039498;28;20043;-81
2023/10/13 11:10:17;;;;;;;1.77;1.67;;;23.20;99.90;;;;;;5024921;28;20093;-86
2023/10/13 11:12:56;;;;;;;0.90;0.90;;;23.10;99.90;;;;;;5026690;28;20044;-89
2023/10/13 11:15:40;;;;;;;1.55;1.45;;;23.10;99.90;;;;;;5026942;28;20164;-90
2023/10/13 11:18:18;;;;;;;;;;;;;;;;;;;;;
2023/10/13 11:21:06;;;;;;;1.40;1.38;;;23.20;99.90;;;;;;5044590;28;20526;-88
2023/10/13 11:24:06;;;;;;;;;;;;;;;;;;;;;
2023/10/13 11:26:54;;;;;;;1.73;1.00;;;23.40;99.90;;;;;;5030293;28;20041;-88
2023/10/13 11:29:44;;;;;;;1.10;1.10;;;23.30;99.90;;;;;;5001158;28;20045;-89
2023/10/13 11:32:19;;;;;;;1.48;1.42;;;23.20;99.90;;;;;;5024273;28;20025;-92
2023/10/13 11:34:55;;;;;;;1.42;1.42;;;23.40;99.90;;;;;;5022897;28;20481;-87
2023/10/13 11:37:48;;;;;;;1.25;1.25;;;23.40;99.90;;;;;;5004534;28;20037;-85
2023/10/13 11:40:59;;;;;;;;;;;;;;;;;;;;;
2023/10/13 11:43:26;;;;;;;1.63;1.52;;;23.40;99.90;;;;;;5023929;28;20037;-86
2023/10/13 11:48:47;;;;;;;4.88;1.85;;;23.90;99.90;;;;;;5040522;28;20017;-89
2023/10/13 11:51:25;;;;;;;1.50;1.50;;;24.00;99.90;;;;;;5022503;28;20033;-95
2023/10/13 11:54:01;;;;;;;4.90;2.22;;;24.30;99.90;;;;;;5025574;28;20090;-88
2023/10/13 11:56:27;;;;;;;1.98;1.88;;;24.60;99.90;;;;;;5025700;28;20044;-84
2023/10/13 11:59:01;;;;;;;1.30;1.30;;;24.70;99.90;;;;;;5028412;28;21472;-94
2023/10/13 12:04:54;;;;;;;1.60;1.50;;;24.80;99.90;;;;;;4984376;28;20046;-83
2023/10/13 12:07:26;;;;;;;2.30;1.38;;;25.00;99.90;;;;;;5051422;28;20020;-86
2023/10/13 12:10:15;;;;;;;1.90;1.80;;;25.10;99.90;;;;;;5042964;28;20026;-82
2023/10/13 12:12:43;;;;;;;1.92;1.83;;;25.40;99.90;;;;;;5036783;28;20060;-88
2023/10/13 12:15:09;;;;;;;1.33;1.33;;;25.50;99.90;;;;;;5019536;28;20021;-82
2023/10/13 12:17:36;;;;;;;2.00;1.90;;;25.40;99.90;;;;;;5030934;28;20025;-85
2023/10/13 12:20:09;;;;;;;3.53;2.08;;;25.10;99.90;;;;;;5064728;28;20032;-88
2023/10/13 12:22:39;;;;;;;1.65;1.65;;;25.10;99.90;;;;;;5037999;28;20071;-89
2023/10/13 12:25:25;;;;;;;2.42;1.52;;;25.30;99.90;;;;;;5024529;28;20032;-90
2023/10/13 12:27:56;;;;;;;2.58;2.38;;;25.40;99.90;;;;;;5020394;28;20029;-85
2023/10/13 12:30:35;;;;;;;3.90;2.37;;;25.40;99.90;;;;;;5023313;28;20029;-88
2023/10/13 12:33:11;;;;;;;2.05;1.70;;;25.40;99.90;;;;;;5024620;28;20025;-87
2023/10/13 12:38:37;;;;;;;9.68;2.35;;;25.40;99.90;;;;;;5059020;28;20044;-88
2023/10/13 12:52:16;;;;;;;3.97;1.65;;;25.00;99.90;;;;;;5035570;28;20111;-87
2023/10/13 12:57:26;;;;;;;2.70;1.77;;;25.10;99.90;;;;;;5033679;28;20027;-84
2023/10/13 12:59:53;;;;;;;3.33;1.92;;;25.10;99.90;;;;;;5034113;28;20403;-82
2023/10/13 13:02:24;;;;;;;3.03;1.92;;;25.30;99.90;;;;;;5033617;28;20101;-84
2023/10/13 13:05:02;;;;;;;1.67;1.58;;;25.30;99.90;;;;;;5018396;28;20036;-84
2023/10/13 13:07:29;;;;;;;3.28;2.47;;;25.30;99.90;;;;;;5030220;28;20021;-83
2023/10/13 13:09:59;;;;;;;2.05;1.95;;;25.10;99.90;;;;;;5034781;28;20037;-87
2023/10/13 13:12:28;;;;;;;1.85;1.75;;;25.10;99.90;;;;;;5020695;28;20385;-87
2023/10/13 13:14:57;;;;;;;1.88;1.77;;;25.00;99.90;;;;;;5019847;28;20021;-88
2023/10/13 13:17:25;;;;;;;8.88;1.52;;;25.00;99.90;;;;;;5020160;28;20032;-87
2023/10/13 13:19:50;;;;;;;2.28;2.05;;;25.10;99.90;;;;;;5018899;28;20032;-84
2023/10/13 13:22:17;;;;;;;2.58;1.92;;;25.00;99.90;;;;;;5022971;28;20103;-83
2023/10/13 13:24:44;;;;;;;1.75;1.65;;;24.90;99.90;;;;;;5035148;28;20146;-85
2023/10/13 13:27:22;;;;;;;3.17;1.92;;;24.90;99.90;;;;;;5017779;28;20072;-83
2023/10/13 13:29:47;;;;;;;2.42;2.17;;;24.80;99.90;;;;;;5021342;28;20037;-83
2023/10/13 13:32:23;;;;;;;1.63;1.52;;;24.80;99.90;;;;;;5027322;28;20021;-90
2023/10/13 13:35:04;;;;;;;2.05;1.83;;;24.80;99.90;;;;;;5035437;28;20039;-87
2023/10/13 13:37:30;;;;;;;2.28;1.77;;;24.70;99.90;;;;;;5016967;28;20466;-86
2023/10/13 13:40:13;;;;;;;1.83;1.73;;;24.70;99.90;;;;;;5041232;28;20496;-83
2023/10/13 13:42:42;;;;;;;;;;;24.70;99.90;;;;;;5018647;28;20838;-84
2023/10/13 13:46:08;;;;;;;1.60;1.50;;;24.60;99.90;;;;;;5015992;28;20366;-83
2023/10/13 13:49:29;;;;;;;2.25;1.90;;;24.70;99.90;;;;;;5011857;28;20033;-83
2023/10/13 13:52:33;;;;;;;2.00;1.70;;;24.70;99.70;;;;;;5018426;28;20037;-83
2023/10/13 13:55:02;;;;;;;2.50;2.30;;;24.80;99.90;;;;;;4963713;28;20044;-79
2023/10/13 13:57:29;;;;;;;1.55;1.45;;;24.80;99.80;;;;;;5032421;28;20069;-79
2023/10/13 13:59:57;;;;;;;2.55;1.80;;;24.70;99.90;;;;;;5022232;28;20139;-81
2023/10/13 14:02:23;;;;;;;3.28;2.10;;;24.70;99.90;;;;;;5026349;28;20037;-80
2023/10/13 14:04:52;;;;;;;1.40;1.40;;;24.60;99.80;;;;;;5017847;28;20110;-81
2023/10/13 14:07:23;;;;;;;3.03;2.78;;;24.70;99.90;;;;;;5018784;28;20020;-80
2023/10/13 14:09:52;;;;;;;1.83;1.70;;;24.70;99.90;;;;;;5034623;28;20013;-80
2023/10/13 14:12:29;;;;;;;2.00;1.83;;;24.70;99.90;;;;;;5037812;28;20025;-81
2023/10/13 14:14:56;;;;;;;1.67;1.30;;;24.60;99.90;;;;;;5010290;28;20124;-81
2023/10/13 14:17:35;;;;;;;6.18;2.03;;;24.50;99.90;;;;;;5015417;28;20580;-80
2023/10/13 14:20:09;;;;;;;2.03;1.92;;;24.60;99.90;;;;;;5014456;28;20128;-82
2023/10/13 14:22:37;;;;;;;2.88;2.63;;;24.50;99.90;;;;;;5036709;28;20518;-80
2023/10/13 14:25:08;;;;;;;1.65;1.55;;;24.50;99.90;;;;;;5019570;28;20158;-80
2023/10/13 14:27:35;;;;;;;1.35;1.35;;;24.50;99.90;;;;;;5031481;28;20020;-80
2023/10/13 14:30:02;;;;;;;1.80;1.70;;;24.50;99.90;;;;;;5033760;28;20013;-81
2023/10/13 14:32:28;;;;;;;4.32;2.30;;;24.40;99.90;;;;;;5017514;28;20439;-79
2023/10/13 14:34:54;;;;;;;3.05;1.70;;;24.30;99.90;;;;;;5032383;28;20382;-80
2023/10/13 14:37:26;;;;;;;3.33;1.90;;;24.20;99.90;;;;;;5036280;28;20017;-82
2023/10/13 14:39:56;;;;;;;1.33;1.23;;;24.10;99.90;;;;;;5017021;28;20053;-86
2023/10/13 14:42:26;;;;;;;1.48;1.42;;;24.10;99.90;;;;;;5062066;28;20113;-85
2023/10/13 14:44:57;;;;;;;1.25;1.20;;;24.00;99.90;;;;;;5027039;28;20032;-82
2023/10/13 14:47:26;;;;;;;2.17;2.03;;;24.10;99.90;;;;;;5014789;28;20029;-87
2023/10/13 14:49:59;;;;;;;2.67;2.05;;;24.20;99.90;;;;;;5018781;28;20040;-87
2023/10/13 14:52:31;;;;;;;1.35;1.27;;;24.00;99.90;;;;;;5017042;28;20033;-86
2023/10/13 14:54:57;;;;;;;1.55;1.45;;;24.00;99.90;;;;;;5015113;28;20060;-89
2023/10/13 14:57:26;;;;;;;1.70;1.60;;;23.90;99.90;;;;;;5014542;28;20029;-89
2023/10/13 14:59:53;;;;;;;3.90;2.33;;;23.90;99.90;;;;;;5039602;28;20231;-87
2023/10/13 15:02:19;;;;;;;2.13;1.85;;;23.80;99.90;;;;;;5021516;28;20032;-88
2023/10/13 15:04:48;;;;;;;4.85;1.52;;;23.80;99.90;;;;;;5024267;28;20029;-94
2023/10/13 15:07:17;;;;;;;1.98;1.88;;;23.70;99.90;;;;;;5042987;28;20025;-88
2023/10/13 15:09:43;;;;;;;2.30;1.83;;;23.70;99.90;;;;;;5022022;28;20029;-90
2023/10/13 15:12:13;;;;;;;1.50;1.40;;;23.60;99.90;;;;;;5047241;28;20028;-89
2023/10/13 15:14:42;;;;;;;1.65;1.58;;;23.50;99.90;;;;;;5028497;28;20021;-91
2023/10/13 15:17:09;;;;;;;1.60;1.58;;;23.50;99.90;;;;;;5030562;28;20021;-91
2023/10/13 15:19:38;;;;;;;8.00;2.05;;;23.60;99.90;;;;;;5037963;28;20028;-89
2023/10/13 15:22:07;;;;;;;3.42;1.65;;;23.50;99.90;;;;;;5054520;28;20041;-88
2023/10/13 15:24:42;;;;;;;1.65;1.55;;;23.50;99.90;;;;;;5039302;28;20175;-89
2023/10/13 15:27:08;;;;;;;2.00;1.77;;;23.50;99.90;;;;;;5044652;28;20020;-89
2023/10/13 15:29:37;;;;;;;1.00;1.00;;;23.40;99.90;;;;;;5043256;28;20511;-88
2023/10/13 15:34:29;;;;;;;6.88;2.10;;;23.40;99.90;;;;;;5045168;28;20680;-86
2023/10/13 15:36:59;;;;;;;1.13;1.13;;;23.40;99.90;;;;;;5029822;28;20044;-88
2023/10/13 15:39:28;;;;;;;1.65;1.55;;;23.40;99.90;;;;;;5050544;28;20089;-88
2023/10/13 15:42:02;;;;;;;3.08;1.95;;;23.30;99.90;;;;;;5061028;28;20044;-88
2023/10/13 15:44:30;;;;;;;1.48;1.38;;;23.20;99.90;;;;;;5070589;28;20185;-92
2023/10/13 15:46:58;;;;;;;1.33;1.23;;;23.30;99.90;;;;;;5055532;28;20577;-86
2023/10/13 15:49:23;;;;;;;2.38;2.28;;;23.30;99.90;;;;;;5035821;28;20040;-87
2023/10/13 15:51:49;;;;;;;1.80;1.70;;;23.30;99.90;;;;;;5039053;28;20045;-89
2023/10/13 15:54:17;;;;;;;1.65;1.55;;;23.20;99.90;;;;;;5029409;28;20021;-89
2023/10/13 15:56:46;;;;;;;1.27;1.17;;;23.20;99.90;;;;;;5032801;28;20047;-89
2023/10/13 15:59:12;;;;;;;2.28;2.10;;;23.10;99.90;;;;;;5030827;28;20025;-87
2023/10/13 16:01:40;;;;;;;1.83;1.73;;;23.10;99.90;;;;;;5025491;28;20108;-87
2023/10/13 16:04:13;;;;;;;1.20;1.20;;;23.10;99.90;;;;;;5043544;28;20098;-88
2023/10/13 16:06:46;;;;;;;1.63;1.52;;;23.10;99.90;;;;;;5028132;28;20033;-90
2023/10/13 16:09:19;;;;;;;1.42;1.30;;;23.00;99.90;;;;;;5028089;28;20250;-88
2023/10/13 16:11:45;;;;;;;3.33;1.75;;;23.00;99.90;;;;;;5030923;28;20021;-88
2023/10/13 16:14:18;;;;;;;4.22;2.30;;;22.90;99.90;;;;;;5041055;28;20020;-89
2023/10/13 16:16:52;;;;;;;1.67;1.58;;;22.80;99.90;;;;;;5046093;28;20048;-88
2023/10/13 16:19:24;;;;;;;2.40;1.60;;;22.70;99.90;;;;;;5028034;28;20098;-87
2023/10/13 16:21:52;;;;;;;1.00;1.00;;;22.50;99.90;;;;;;5043553;28;20034;-88
2023/10/13 16:24:18;;;;;;;1.33;1.33;;;22.40;99.90;;;;;;5040138;28;20024;-86
2023/10/13 16:26:55;;;;;;;1.63;1.35;;;22.40;99.90;;;;;;5060742;28;20548;-89
2023/10/13 16:29:21;;;;;;;1.20;1.20;;;22.20;99.90;;;;;;5026978;28;20032;-89
2023/10/13 16:31:48;;;;;;;0.98;0.98;;;22.10;99.90;;;;;;5042573;28;20108;-91
2023/10/13 16:34:17;;;;;;;2.58;1.77;;;22.00;99.90;;;;;;5025524;28;20397;-89
2023/10/13 16:36:45;;;;;;;1.45;1.35;;;22.00;99.90;;;;;;5048758;28;20064;-88
2023/10/13 16:39:11;;;;;;;1.08;1.08;;;21.90;99.90;;;;;;5044989;28;20051;-86
2023/10/13 16:41:41;;;;;;;1.35;1.30;;;21.70;99.90;;;;;;5025508;28;20043;-89